Time;durP1;ratioP1;P1;durP2;ratioP2;P2;SDS_P1;SDS_P2;PMS_P1;PMS_P2;Temp;Humidity;BMP_temperature;BMP_pressure;BME280_temperature;BME280_humidity;BME280_pressure;Samples;Min_cycle;Max_cycle;Signal;HPM_P1;HPM_P2
2022/11/12 00:01:58;;;;;;;4.93;3.20;;;5.80;97.30;;;;;;5077905;28;20193;-88
2022/11/12 00:04:24;;;;;;;2.60;2.40;;;5.80;97.30;;;;;;5087461;28;20277;-88
2022/11/12 00:06:49;;;;;;;4.80;3.47;;;5.70;97.30;;;;;;5089073;28;20243;-88
2022/11/12 00:09:15;;;;;;;2.40;2.17;;;5.70;97.30;;;;;;5089165;28;20209;-88
2022/11/12 00:11:40;;;;;;;2.80;2.60;;;5.60;97.30;;;;;;5088760;28;20193;-88
2022/11/12 00:14:06;;;;;;;49.00;4.17;;;5.60;97.30;;;;;;5088645;28;20173;-88
2022/11/12 00:16:31;;;;;;;4.73;2.57;;;5.60;97.30;;;;;;5090519;28;20563;-87
2022/11/12 00:18:57;;;;;;;2.30;2.10;;;5.60;97.30;;;;;;5089051;28;20174;-88
2022/11/12 00:21:22;;;;;;;2.40;1.80;;;5.60;97.30;;;;;;5089023;28;20189;-88
2022/11/12 00:23:48;;;;;;;2.93;2.63;;;5.60;97.30;;;;;;5088937;28;20182;-87
2022/11/12 00:26:13;;;;;;;3.10;2.90;;;5.60;97.30;;;;;;5088902;28;20185;-89
2022/11/12 00:28:39;;;;;;;4.40;3.70;;;5.60;97.30;;;;;;5078284;28;20179;-88
2022/11/12 00:31:09;;;;;;;1.80;1.70;;;5.60;97.30;;;;;;5092774;28;20206;-88
2022/11/12 00:33:39;;;;;;;4.93;2.20;;;5.60;97.30;;;;;;5092932;28;20184;-88
2022/11/12 00:36:05;;;;;;;1.87;1.80;;;5.50;97.30;;;;;;5093111;28;20503;-87
2022/11/12 00:38:30;;;;;;;1.90;1.80;;;5.50;97.30;;;;;;5094461;28;20455;-89
2022/11/12 00:40:59;;;;;;;2.23;1.83;;;5.50;97.30;;;;;;5093278;28;20255;-87
2022/11/12 00:43:25;;;;;;;3.93;2.40;;;5.50;97.30;;;;;;5091814;28;20581;-87
2022/11/12 00:45:50;;;;;;;2.77;2.67;;;5.60;97.30;;;;;;5092995;28;20409;-87
2022/11/12 00:48:16;;;;;;;5.93;3.50;;;5.50;97.30;;;;;;5090626;28;20175;-88
2022/11/12 00:50:41;;;;;;;2.63;2.43;;;5.60;97.30;;;;;;5091932;28;20732;-88
2022/11/12 00:53:08;;;;;;;1.73;1.63;;;5.50;97.30;;;;;;5092820;28;20181;-88
2022/11/12 00:55:33;;;;;;;2.47;2.27;;;5.50;97.30;;;;;;5092684;28;20253;-88
2022/11/12 00:57:59;;;;;;;1.53;1.43;;;5.50;97.30;;;;;;5092588;28;20512;-87
2022/11/12 01:00:24;;;;;;;3.00;2.80;;;5.50;97.30;;;;;;5093396;28;20198;-86
2022/11/12 01:02:50;;;;;;;3.20;3.00;;;5.50;97.30;;;;;;5092350;28;20676;-88
2022/11/12 01:05:16;;;;;;;3.27;2.40;;;5.40;97.30;;;;;;5093849;28;20198;-87
2022/11/12 01:07:42;;;;;;;2.57;2.37;;;5.40;97.30;;;;;;5093310;28;20210;-87
2022/11/12 01:10:09;;;;;;;2.60;2.43;;;5.40;97.30;;;;;;5092421;28;20478;-88
2022/11/12 01:12:35;;;;;;;2.27;2.10;;;5.30;97.30;;;;;;5091904;28;20209;-88
2022/11/12 01:15:01;;;;;;;1.40;1.30;;;5.30;97.30;;;;;;5092303;28;20418;-87
2022/11/12 01:17:27;;;;;;;2.73;2.53;;;5.20;97.30;;;;;;5091602;28;20583;-88
2022/11/12 01:19:53;;;;;;;2.03;1.93;;;5.10;97.30;;;;;;5092306;28;21005;-88
2022/11/12 01:22:18;;;;;;;2.80;2.60;;;5.10;97.30;;;;;;5093253;28;20190;-88
2022/11/12 01:24:44;;;;;;;2.77;2.57;;;5.10;97.30;;;;;;5092053;28;20187;-88
2022/11/12 01:27:09;;;;;;;1.97;1.87;;;5.10;97.30;;;;;;5092121;28;20175;-87
2022/11/12 01:29:35;;;;;;;1.47;1.40;;;5.00;97.30;;;;;;5091869;28;20680;-88
2022/11/12 01:32:00;;;;;;;2.63;2.47;;;5.00;97.30;;;;;;5091563;28;20225;-87
2022/11/12 01:34:26;;;;;;;1.50;1.40;;;5.00;97.30;;;;;;5093366;28;20167;-87
2022/11/12 01:36:51;;;;;;;3.57;1.60;;;4.90;97.30;;;;;;5091604;28;20235;-87
2022/11/12 01:39:17;;;;;;;10.50;1.87;;;4.90;97.30;;;;;;5091461;28;20193;-87
2022/11/12 01:41:42;;;;;;;1.73;1.63;;;4.90;97.30;;;;;;5091686;28;20809;-89
2022/11/12 01:44:21;;;;;;;2.40;2.20;;;4.80;97.30;;;;;;5091567;28;20584;-85
2022/11/12 01:47:13;;;;;;;1.97;1.80;;;4.80;97.30;;;;;;5096634;28;20174;-89
2022/11/12 01:49:45;;;;;;;1.83;1.73;;;4.80;97.30;;;;;;5107180;28;20465;-89
2022/11/12 01:52:26;;;;;;;1.57;1.47;;;4.70;97.30;;;;;;5117316;28;20531;-89
2022/11/12 01:54:57;;;;;;;1.83;1.73;;;4.70;97.30;;;;;;5103940;28;20791;-89
2022/11/12 01:57:28;;;;;;;2.87;1.63;;;4.70;97.30;;;;;;5107993;28;20409;-88
2022/11/12 01:59:59;;;;;;;5.97;3.33;;;4.70;97.30;;;;;;5091236;28;20549;-87
2022/11/12 02:02:26;;;;;;;2.53;2.33;;;4.60;97.30;;;;;;5091574;28;20416;-87
2022/11/12 02:04:53;;;;;;;2.60;2.30;;;4.50;97.30;;;;;;5091281;28;20423;-86
2022/11/12 02:07:25;;;;;;;4.80;2.30;;;4.50;97.30;;;;;;5091308;28;20427;-84
2022/11/12 02:09:57;;;;;;;2.27;2.07;;;4.50;97.30;;;;;;5099456;28;20464;-87
2022/11/12 02:15:13;;;;;;;2.70;2.37;;;4.50;97.30;;;;;;5098972;28;20431;-84
2022/11/12 02:17:39;;;;;;;2.97;2.77;;;4.50;97.30;;;;;;5097244;28;20428;-83
2022/11/12 02:20:08;;;;;;;3.10;2.80;;;4.50;97.30;;;;;;5097965;28;20499;-86
2022/11/12 02:22:34;;;;;;;2.17;2.00;;;4.50;97.30;;;;;;5098032;28;20467;-83
2022/11/12 02:25:05;;;;;;;2.70;1.40;;;4.50;97.30;;;;;;5097403;28;20420;-84
2022/11/12 02:27:34;;;;;;;2.93;2.60;;;4.50;97.30;;;;;;5096235;28;20634;-84
2022/11/12 02:30:08;;;;;;;2.33;2.13;;;4.50;97.30;;;;;;5096417;28;21100;-85
2022/11/12 02:32:34;;;;;;;4.93;2.57;;;4.50;97.30;;;;;;5091234;28;20502;-89
2022/11/12 02:34:59;;;;;;;2.10;1.67;;;4.40;97.30;;;;;;5090473;28;20416;-87
2022/11/12 02:37:25;;;;;;;3.53;1.87;;;4.40;97.30;;;;;;5090060;28;20632;-88
2022/11/12 02:39:50;;;;;;;1.87;1.83;;;4.30;97.30;;;;;;5090347;28;20198;-87
2022/11/12 02:42:16;;;;;;;2.87;2.43;;;4.30;97.30;;;;;;5090224;28;20243;-87
2022/11/12 02:44:41;;;;;;;2.43;2.10;;;4.30;97.30;;;;;;5090378;28;20206;-87
2022/11/12 02:47:07;;;;;;;5.63;3.53;;;4.30;97.30;;;;;;5090447;28;20186;-87
2022/11/12 02:49:32;;;;;;;1.67;1.47;;;4.30;97.30;;;;;;5090139;28;20230;-88
2022/11/12 02:51:58;;;;;;;2.93;2.40;;;4.40;97.30;;;;;;5089301;28;20327;-87
2022/11/12 02:54:23;;;;;;;1.70;1.60;;;4.40;97.30;;;;;;5090001;28;20261;-87
2022/11/12 02:56:49;;;;;;;1.87;1.80;;;4.40;97.30;;;;;;5091408;28;20186;-87
2022/11/12 02:59:14;;;;;;;3.77;3.57;;;4.40;97.30;;;;;;5090537;28;20197;-87
2022/11/12 03:01:40;;;;;;;2.90;2.70;;;4.40;97.30;;;;;;5090712;28;20178;-87
2022/11/12 03:04:05;;;;;;;2.30;2.10;;;4.30;97.30;;;;;;5090912;28;20178;-87
2022/11/12 03:06:31;;;;;;;1.90;1.80;;;4.30;97.30;;;;;;5090685;28;20672;-87
2022/11/12 03:08:56;;;;;;;5.27;3.07;;;4.30;97.30;;;;;;5090637;28;20181;-87
2022/11/12 03:11:22;;;;;;;1.60;1.50;;;4.20;97.30;;;;;;5090179;28;20190;-87
2022/11/12 03:13:47;;;;;;;2.60;2.40;;;4.10;97.30;;;;;;5089963;28;20282;-87
2022/11/12 03:16:13;;;;;;;2.70;1.90;;;4.10;97.30;;;;;;5090369;28;20230;-87
2022/11/12 03:18:39;;;;;;;1.93;1.83;;;4.10;97.30;;;;;;5090073;28;20641;-88
2022/11/12 03:21:04;;;;;;;1.87;1.73;;;4.10;97.30;;;;;;5090238;28;20199;-87
2022/11/12 03:23:43;;;;;;;2.77;2.57;;;4.20;97.30;;;;;;5087381;28;20213;-84
2022/11/12 03:26:09;;;;;;;2.53;1.33;;;4.20;97.30;;;;;;5088110;28;20413;-84
2022/11/12 03:28:35;;;;;;;2.33;1.70;;;4.20;97.30;;;;;;5098505;28;20474;-85
2022/11/12 03:31:01;;;;;;;2.30;2.00;;;4.10;97.30;;;;;;5099984;28;20595;-84
2022/11/12 03:33:32;;;;;;;2.53;2.27;;;4.10;97.30;;;;;;5096606;28;20496;-84
2022/11/12 03:36:03;;;;;;;1.90;1.80;;;4.10;97.30;;;;;;5098154;28;20447;-85
2022/11/12 03:38:31;;;;;;;2.90;2.33;;;4.00;97.30;;;;;;5096233;28;20429;-86
2022/11/12 03:41:05;;;;;;;2.23;2.03;;;4.00;97.30;;;;;;5096271;28;20518;-83
2022/11/12 03:43:39;;;;;;;2.87;2.73;;;3.90;97.30;;;;;;5094421;28;20428;-86
2022/11/12 03:46:10;;;;;;;2.13;1.67;;;3.90;97.30;;;;;;5094740;28;20579;-85
2022/11/12 03:48:36;;;;;;;1.50;1.40;;;3.90;97.30;;;;;;5086905;28;20424;-87
2022/11/12 03:51:01;;;;;;;1.20;1.10;;;3.80;97.30;;;;;;5109935;22;20930;-88
2022/11/12 03:53:27;;;;;;;1.50;1.40;;;3.80;97.30;;;;;;5083666;28;20194;-87
2022/11/12 03:55:52;;;;;;;1.57;1.47;;;3.80;97.30;;;;;;5093689;28;20167;-87
2022/11/12 03:58:18;;;;;;;1.87;1.77;;;3.70;97.30;;;;;;5089373;28;20178;-88
2022/11/12 04:00:43;;;;;;;2.83;2.63;;;3.70;97.30;;;;;;5087743;28;20249;-90
2022/11/12 04:03:09;;;;;;;1.87;1.77;;;3.70;97.30;;;;;;5099063;28;20166;-87
2022/11/12 04:08:36;;;;;;;2.50;1.93;;;3.60;97.30;;;;;;5091602;28;20177;-87
2022/11/12 04:11:08;;;;;;;4.37;3.00;;;3.60;97.30;;;;;;5100886;28;20443;-87
2022/11/12 04:13:35;;;;;;;1.23;1.13;;;3.60;97.30;;;;;;5077158;28;20959;-87
2022/11/12 04:21:53;;;;;;;3.33;3.13;;;3.70;97.30;;;;;;5076797;28;21038;-85
2022/11/12 04:27:13;;;;;;;3.20;1.97;;;3.60;97.30;;;;;;5100925;28;20416;-83
2022/11/12 04:32:24;;;;;;;1.70;1.60;;;3.50;97.30;;;;;;5102056;28;20493;-83
2022/11/12 04:34:50;;;;;;;1.40;1.30;;;3.60;97.30;;;;;;5099015;28;20512;-80
2022/11/12 04:37:19;;;;;;;3.47;2.40;;;3.60;97.30;;;;;;5099322;28;20416;-83
2022/11/12 04:39:45;;;;;;;1.47;1.37;;;3.50;97.30;;;;;;5100126;28;20424;-83
2022/11/12 04:45:04;;;;;;;1.67;1.57;;;3.40;97.30;;;;;;5102323;28;20422;-85
2022/11/12 04:47:44;;;;;;;2.50;2.30;;;3.40;97.30;;;;;;5101389;28;20925;-82
2022/11/12 04:50:21;;;;;;;2.03;1.90;;;3.30;97.30;;;;;;5100823;28;20447;-86
2022/11/12 04:52:47;;;;;;;1.40;1.30;;;3.30;97.30;;;;;;5070484;28;20512;-86
2022/11/12 04:55:12;;;;;;;1.77;1.67;;;3.30;97.30;;;;;;5080073;28;20671;-88
2022/11/12 04:57:38;;;;;;;1.80;1.73;;;3.20;97.30;;;;;;5089182;28;20210;-88
2022/11/12 05:00:05;;;;;;;2.70;2.00;;;3.20;97.30;;;;;;5080840;28;20261;-87
2022/11/12 05:02:30;;;;;;;2.37;1.90;;;3.20;97.30;;;;;;5069891;28;20199;-87
2022/11/12 05:04:56;;;;;;;1.40;1.30;;;3.10;97.30;;;;;;5090712;28;20420;-88
2022/11/12 05:07:21;;;;;;;1.73;1.63;;;3.10;97.30;;;;;;5097869;28;20174;-87
2022/11/12 05:09:47;;;;;;;2.90;2.70;;;3.10;97.30;;;;;;5086974;28;20178;-86
2022/11/12 05:12:13;;;;;;;1.50;1.40;;;3.00;97.30;;;;;;5093682;28;20262;-87
2022/11/12 05:14:38;;;;;;;2.70;1.93;;;3.00;97.30;;;;;;5103707;28;20182;-87
2022/11/12 05:17:04;;;;;;;1.90;1.80;;;3.00;97.30;;;;;;5100524;28;20257;-87
2022/11/12 05:19:30;;;;;;;1.70;1.60;;;3.00;97.30;;;;;;5105558;28;20231;-87
2022/11/12 05:22:04;;;;;;;4.40;2.57;;;3.00;97.30;;;;;;5091732;28;20285;-86
2022/11/12 05:24:32;;;;;;;2.50;2.37;;;2.90;97.30;;;;;;5079000;28;20174;-87
2022/11/12 05:26:58;;;;;;;2.07;1.67;;;2.90;97.30;;;;;;5083712;28;20476;-87
2022/11/12 05:29:23;;;;;;;3.23;2.17;;;2.80;97.30;;;;;;5101119;28;20413;-86
2022/11/12 05:31:49;;;;;;;25.63;4.23;;;2.80;97.30;;;;;;5092617;28;20206;-87
2022/11/12 05:34:16;;;;;;;5.10;2.40;;;2.80;97.30;;;;;;5092364;28;20221;-87
2022/11/12 05:36:42;;;;;;;1.87;1.77;;;2.80;97.30;;;;;;5091727;28;20170;-88
2022/11/12 05:39:08;;;;;;;1.40;1.40;;;2.70;97.30;;;;;;5093113;28;20942;-87
2022/11/12 05:41:33;;;;;;;2.97;2.47;;;2.70;97.30;;;;;;5117322;28;20194;-91
2022/11/12 05:43:59;;;;;;;2.43;1.53;;;2.70;97.30;;;;;;5118487;28;20201;-92
2022/11/12 05:46:27;;;;;;;1.40;1.30;;;2.70;97.30;;;;;;5115317;28;20250;-89
2022/11/12 05:48:52;;;;;;;2.80;2.03;;;2.70;97.30;;;;;;5091997;28;20224;-87
2022/11/12 05:51:18;;;;;;;1.60;1.50;;;2.70;97.30;;;;;;5086774;28;20472;-87
2022/11/12 05:53:44;;;;;;;4.03;2.20;;;2.70;97.30;;;;;;5074146;28;20558;-85
2022/11/12 05:56:11;;;;;;;3.37;2.03;;;2.70;97.30;;;;;;5075208;28;20213;-87
2022/11/12 05:58:37;;;;;;;2.07;1.93;;;2.60;97.30;;;;;;5071430;28;20175;-87
2022/11/12 06:01:03;;;;;;;4.60;3.00;;;2.60;97.30;;;;;;5074384;28;20432;-86
2022/11/12 06:03:29;;;;;;;3.77;3.57;;;2.60;97.30;;;;;;5081957;28;20418;-87
2022/11/12 06:05:54;;;;;;;4.47;2.87;;;2.60;97.30;;;;;;5091306;28;20430;-86
2022/11/12 06:08:20;;;;;;;5.20;4.90;;;2.60;97.30;;;;;;5094997;28;20414;-86
2022/11/12 06:10:51;;;;;;;1.87;1.73;;;2.60;97.30;;;;;;5084198;28;20769;-86
2022/11/12 06:13:17;;;;;;;2.77;2.57;;;2.60;97.30;;;;;;5091570;28;20779;-86
2022/11/12 06:15:43;;;;;;;2.23;2.03;;;2.60;97.30;;;;;;5091742;28;20419;-86
2022/11/12 06:18:09;;;;;;;6.33;3.10;;;2.60;97.30;;;;;;5091454;28;20499;-87
2022/11/12 06:20:35;;;;;;;1.50;1.40;;;2.60;97.30;;;;;;5090731;28;20178;-87
2022/11/12 06:23:01;;;;;;;5.07;2.07;;;2.60;97.30;;;;;;5091105;28;20723;-87
2022/11/12 06:25:27;;;;;;;10.37;5.97;;;2.60;97.30;;;;;;5083929;28;20409;-87
2022/11/12 06:27:53;;;;;;;11.43;4.17;;;2.50;97.30;;;;;;5070643;28;20248;-85
2022/11/12 06:30:19;;;;;;;9.60;4.07;;;2.50;97.30;;;;;;5091856;28;20177;-86
2022/11/12 06:32:48;;;;;;;3.40;3.20;;;2.50;97.30;;;;;;5090565;28;20460;-87
2022/11/12 06:35:16;;;;;;;1.63;1.53;;;2.50;97.30;;;;;;5071086;28;20461;-85
2022/11/12 06:37:41;;;;;;;4.50;2.80;;;2.50;97.30;;;;;;5084379;28;20935;-86
2022/11/12 06:40:08;;;;;;;3.77;2.80;;;2.50;97.30;;;;;;5090772;28;20416;-87
2022/11/12 06:42:33;;;;;;;1.90;1.80;;;2.50;97.30;;;;;;5090202;28;20232;-87
2022/11/12 06:44:59;;;;;;;4.77;2.70;;;2.50;97.30;;;;;;5090628;28;20421;-86
2022/11/12 06:47:25;;;;;;;2.00;1.80;;;2.50;97.30;;;;;;5089706;28;20699;-87
2022/11/12 06:49:50;;;;;;;1.97;1.53;;;2.50;97.30;;;;;;5083175;28;20266;-87
2022/11/12 06:52:16;;;;;;;2.07;1.93;;;2.50;97.30;;;;;;5083640;28;20728;-87
2022/11/12 06:54:41;;;;;;;2.80;2.60;;;2.50;97.30;;;;;;5077753;28;20166;-85
2022/11/12 06:57:07;;;;;;;2.80;2.30;;;2.50;97.30;;;;;;5090199;28;20182;-88
2022/11/12 06:59:33;;;;;;;3.20;3.00;;;2.60;97.30;;;;;;5083925;28;20179;-87
2022/11/12 07:01:58;;;;;;;5.10;2.50;;;2.60;97.30;;;;;;5083496;28;20198;-87
2022/11/12 07:04:24;;;;;;;4.40;2.80;;;2.60;97.30;;;;;;5083870;28;20262;-87
2022/11/12 07:06:50;;;;;;;2.60;2.40;;;2.70;97.30;;;;;;5096520;28;20262;-88
2022/11/12 07:09:15;;;;;;;5.50;2.70;;;2.70;97.30;;;;;;5083399;28;20485;-87
2022/11/12 07:11:41;;;;;;;4.23;2.50;;;2.70;97.30;;;;;;5087560;28;20213;-87
2022/11/12 07:14:07;;;;;;;2.50;2.30;;;2.70;97.30;;;;;;5082604;28;20181;-87
2022/11/12 07:16:33;;;;;;;4.30;2.20;;;2.80;97.30;;;;;;5081795;28;20174;-86
2022/11/12 07:18:58;;;;;;;2.30;2.10;;;2.80;97.30;;;;;;5083633;28;20923;-86
2022/11/12 07:21:24;;;;;;;4.43;2.20;;;2.80;97.30;;;;;;5090572;28;20884;-87
2022/11/12 07:23:50;;;;;;;2.80;2.60;;;2.90;97.30;;;;;;5090250;28;20178;-87
2022/11/12 07:26:26;;;;;;;3.13;2.70;;;2.90;97.30;;;;;;5090122;28;20179;-87
2022/11/12 07:28:54;;;;;;;3.03;2.50;;;3.00;97.30;;;;;;5090115;28;20232;-87
2022/11/12 07:31:20;;;;;;;2.87;2.30;;;3.10;97.30;;;;;;5090277;28;20606;-87
2022/11/12 07:33:49;;;;;;;2.90;2.70;;;3.20;97.30;;;;;;5090336;28;20431;-87
2022/11/12 07:36:17;;;;;;;3.43;2.70;;;3.20;97.30;;;;;;5090325;28;20618;-86
2022/11/12 07:38:45;;;;;;;10.70;3.70;;;3.30;97.30;;;;;;5089583;28;20946;-86
2022/11/12 07:41:22;;;;;;;10.97;4.37;;;3.40;97.30;;;;;;5090612;28;20874;-86
2022/11/12 07:43:50;;;;;;;3.77;2.97;;;3.50;97.30;;;;;;5089482;28;20497;-85
2022/11/12 07:46:17;;;;;;;8.23;3.10;;;3.60;97.30;;;;;;5080172;28;20789;-86
2022/11/12 07:48:43;;;;;;;3.30;2.57;;;3.70;97.30;;;;;;5092266;28;20478;-88
2022/11/12 07:51:14;;;;;;;5.37;3.23;;;3.80;97.30;;;;;;5096032;28;20473;-87
2022/11/12 07:53:41;;;;;;;4.00;3.40;;;3.90;97.30;;;;;;5071053;28;20416;-87
2022/11/12 07:56:08;;;;;;;3.97;3.70;;;4.00;97.30;;;;;;5089324;28;20429;-86
2022/11/12 07:58:36;;;;;;;4.00;3.73;;;4.20;97.30;;;;;;5090051;28;20452;-87
2022/11/12 08:01:10;;;;;;;15.27;3.70;;;4.30;97.30;;;;;;5086867;28;20455;-86
2022/11/12 08:03:36;;;;;;;9.40;4.50;;;4.40;97.30;;;;;;5086255;28;20428;-87
2022/11/12 08:06:03;;;;;;;5.87;3.63;;;4.60;97.30;;;;;;5082530;28;20424;-86
2022/11/12 08:08:28;;;;;;;4.23;3.97;;;4.70;97.30;;;;;;5084777;28;20454;-86
2022/11/12 08:10:57;;;;;;;6.50;5.93;;;4.90;97.30;;;;;;5079546;28;20455;-84
2022/11/12 08:13:23;;;;;;;3.67;3.20;;;5.00;97.30;;;;;;5082771;28;20244;-88
2022/11/12 08:15:49;;;;;;;8.93;5.47;;;5.20;97.30;;;;;;5082189;28;20968;-87
2022/11/12 08:18:15;;;;;;;6.00;2.43;;;5.40;97.30;;;;;;5081665;28;20545;-87
2022/11/12 08:20:41;;;;;;;7.30;3.87;;;5.50;97.30;;;;;;5081061;28;20428;-87
2022/11/12 08:23:07;;;;;;;4.63;4.33;;;5.70;97.30;;;;;;5080707;28;20492;-88
2022/11/12 08:25:32;;;;;;;5.57;2.53;;;5.80;97.30;;;;;;5077658;28;20174;-87
2022/11/12 08:27:59;;;;;;;4.30;4.03;;;6.00;97.30;;;;;;5087791;28;20185;-89
2022/11/12 08:30:28;;;;;;;3.03;2.83;;;6.30;97.30;;;;;;5092509;28;20175;-86
2022/11/12 08:32:59;;;;;;;3.93;3.73;;;6.50;97.30;;;;;;5079280;28;20464;-87
2022/11/12 08:35:26;;;;;;;6.33;3.37;;;6.70;97.30;;;;;;5078181;28;20711;-87
2022/11/12 08:37:57;;;;;;;10.33;4.30;;;6.90;97.30;;;;;;5079785;28;20462;-86
2022/11/12 08:40:23;;;;;;;11.40;4.93;;;7.10;97.30;;;;;;5086496;28;20426;-87
2022/11/12 08:42:56;;;;;;;12.23;4.30;;;7.20;97.30;;;;;;5076320;28;20417;-87
2022/11/12 08:45:21;;;;;;;10.90;3.73;;;7.40;97.30;;;;;;5096660;28;20218;-87
2022/11/12 08:47:47;;;;;;;5.27;3.67;;;7.50;97.30;;;;;;5092742;28;20935;-86
2022/11/12 08:50:12;;;;;;;3.27;2.33;;;7.70;97.30;;;;;;5088939;28;20573;-86
2022/11/12 08:52:38;;;;;;;5.40;4.13;;;7.90;97.30;;;;;;5091005;28;20257;-85
2022/11/12 08:55:04;;;;;;;6.97;4.07;;;8.10;97.30;;;;;;5091016;28;20525;-86
2022/11/12 08:57:29;;;;;;;3.47;3.30;;;8.30;97.30;;;;;;5090339;28;20174;-86
2022/11/12 08:59:55;;;;;;;3.00;2.80;;;8.40;97.30;;;;;;5089141;28;20477;-88
2022/11/12 09:02:21;;;;;;;5.80;4.57;;;8.60;97.30;;;;;;5093666;28;20199;-87
2022/11/12 09:04:46;;;;;;;2.20;2.03;;;8.80;97.30;;;;;;5084570;28;20175;-87
2022/11/12 09:07:12;;;;;;;1.87;1.63;;;9.00;97.30;;;;;;5091099;28;20182;-87
2022/11/12 09:09:37;;;;;;;5.10;3.70;;;9.10;97.30;;;;;;5087752;28;20193;-87
2022/11/12 09:12:03;;;;;;;2.40;2.13;;;9.30;97.30;;;;;;5087687;28;20222;-86
2022/11/12 09:14:28;;;;;;;2.23;2.03;;;9.50;97.30;;;;;;5096676;28;20264;-87
2022/11/12 09:16:54;;;;;;;6.97;3.50;;;9.60;97.30;;;;;;5088567;28;20171;-87
2022/11/12 09:19:19;;;;;;;7.07;4.33;;;9.70;97.30;;;;;;5087861;28;20219;-87
2022/11/12 09:21:45;;;;;;;3.73;2.70;;;9.90;97.30;;;;;;5088627;28;20200;-87
2022/11/12 09:24:10;;;;;;;9.53;2.80;;;10.00;97.30;;;;;;5083835;28;20175;-87
2022/11/12 09:26:36;;;;;;;6.03;3.13;;;10.10;97.30;;;;;;5091828;28;20186;-86
2022/11/12 09:29:01;;;;;;;2.93;2.73;;;10.20;97.30;;;;;;5085248;28;20556;-87
2022/11/12 09:31:27;;;;;;;3.00;2.73;;;10.30;97.30;;;;;;5086026;28;20210;-88
2022/11/12 09:33:52;;;;;;;4.93;2.20;;;10.50;97.30;;;;;;5087308;28;20216;-87
2022/11/12 09:36:18;;;;;;;5.27;3.53;;;10.60;97.30;;;;;;5091906;28;20174;-87
2022/11/12 09:38:43;;;;;;;6.10;4.73;;;10.80;97.30;;;;;;5084446;28;20236;-87
2022/11/12 09:41:14;;;;;;;6.40;3.60;;;10.90;97.30;;;;;;5088179;28;20618;-88
2022/11/12 09:43:50;;;;;;;5.40;2.50;;;11.00;97.30;;;;;;5091704;28;20402;-86
2022/11/12 09:46:28;;;;;;;3.93;2.30;;;11.20;97.30;;;;;;5088277;28;20429;-86
2022/11/12 09:49:22;;;;;;;2.07;1.93;;;11.40;97.30;;;;;;5085374;28;20921;-87
2022/11/12 09:51:55;;;;;;;5.07;2.63;;;11.60;97.30;;;;;;5085517;22;20518;-85
2022/11/12 09:54:35;;;;;;;3.17;2.63;;;11.80;97.30;;;;;;5048705;28;20438;-85
2022/11/12 09:57:01;;;;;;;3.53;2.20;;;12.00;97.30;;;;;;5064759;28;20932;-85
2022/11/12 09:59:30;;;;;;;6.17;2.27;;;12.20;97.30;;;;;;5050577;28;20933;-85
2022/11/12 10:02:22;;;;;;;6.53;2.73;;;12.50;97.30;;;;;;5058197;28;20449;-85
2022/11/12 10:05:16;;;;;;;5.07;3.57;;;12.70;97.30;;;;;;5051603;28;20480;-85
2022/11/12 10:07:54;;;;;;;4.33;2.87;;;12.90;97.30;;;;;;5035632;28;20936;-84
2022/11/12 10:10:31;;;;;;;2.30;2.13;;;13.20;97.30;;;;;;5047608;28;21008;-85
2022/11/12 10:13:25;;;;;;;2.57;1.77;;;13.40;97.30;;;;;;5051284;28;20465;-85
2022/11/12 10:16:44;;;;;;;3.50;1.70;;;13.60;97.30;;;;;;5054453;28;20432;-84
2022/11/12 10:19:16;;;;;;;3.50;3.10;;;13.80;97.30;;;;;;5064613;28;20406;-85
2022/11/12 10:22:01;;;;;;;4.10;2.10;;;13.80;97.00;;;;;;5050823;28;20434;-85
2022/11/12 10:24:34;;;;;;;2.90;2.03;;;13.90;96.50;;;;;;5051787;28;20410;-84
2022/11/12 10:27:01;;;;;;;6.40;2.50;;;14.00;96.50;;;;;;5055058;28;20410;-84
2022/11/12 10:29:45;;;;;;;2.63;2.50;;;14.00;96.70;;;;;;5053041;28;20442;-85
2022/11/12 10:32:14;;;;;;;3.17;2.57;;;14.10;96.30;;;;;;5041430;28;21004;-84
2022/11/12 10:34:40;;;;;;;4.50;2.60;;;14.10;96.30;;;;;;5048346;28;20425;-85
2022/11/12 10:37:26;;;;;;;1.80;1.70;;;14.10;96.70;;;;;;5045974;28;20891;-85
2022/11/12 10:39:52;;;;;;;2.63;2.27;;;14.10;96.70;;;;;;5048342;28;20206;-85
2022/11/12 10:42:20;;;;;;;4.47;2.90;;;14.10;96.80;;;;;;5047363;28;20459;-85
2022/11/12 10:44:47;;;;;;;4.50;2.47;;;14.10;96.60;;;;;;5051193;28;20567;-85
2022/11/12 10:47:18;;;;;;;6.50;4.20;;;14.20;96.50;;;;;;5049974;28;20410;-85
2022/11/12 10:50:01;;;;;;;1.90;1.70;;;14.20;96.50;;;;;;5050081;28;20418;-85
2022/11/12 10:52:27;;;;;;;4.70;2.23;;;14.20;96.30;;;;;;5052554;28;20464;-85
2022/11/12 10:55:16;;;;;;;4.27;3.50;;;14.20;96.20;;;;;;5049902;28;20786;-84
2022/11/12 10:57:42;;;;;;;2.63;2.33;;;14.20;96.00;;;;;;5041552;28;20274;-85
2022/11/12 11:00:15;;;;;;;6.57;4.27;;;14.20;96.00;;;;;;5050400;28;20505;-84
2022/11/12 11:02:52;;;;;;;4.20;2.50;;;14.20;97.00;;;;;;5050120;28;20303;-85
2022/11/12 11:05:34;;;;;;;5.53;2.50;;;14.20;97.20;;;;;;5050101;28;20414;-85
2022/11/12 11:08:01;;;;;;;3.10;2.67;;;14.20;97.30;;;;;;5050669;28;20422;-85
2022/11/12 11:10:34;;;;;;;4.13;2.93;;;14.10;97.30;;;;;;5062113;28;20418;-85
2022/11/12 11:13:26;;;;;;;4.10;2.97;;;14.10;97.30;;;;;;5062434;28;20465;-86
2022/11/12 11:16:01;;;;;;;6.37;2.80;;;14.00;97.30;;;;;;5052660;28;20955;-85
2022/11/12 11:18:28;;;;;;;5.63;3.00;;;13.90;97.30;;;;;;5037901;28;20420;-85
2022/11/12 11:21:28;;;;;;;3.77;3.57;;;13.80;97.30;;;;;;5050528;28;20414;-86
2022/11/12 11:24:12;;;;;;;3.63;2.13;;;13.70;97.30;;;;;;5035155;28;20410;-85
2022/11/12 11:26:48;;;;;;;8.10;3.57;;;13.70;97.30;;;;;;5036253;28;20893;-85
2022/11/12 11:29:34;;;;;;;3.03;2.83;;;13.70;97.30;;;;;;5047760;28;20409;-85
2022/11/12 11:32:32;;;;;;;5.03;3.63;;;13.70;97.30;;;;;;5050963;28;20461;-86
2022/11/12 11:35:26;;;;;;;5.80;2.97;;;13.60;97.30;;;;;;5033388;28;20422;-86
2022/11/12 11:37:56;;;;;;;2.43;2.20;;;13.70;97.30;;;;;;5049686;28;20417;-83
2022/11/12 11:40:35;;;;;;;3.00;2.73;;;13.70;97.30;;;;;;5051408;28;20414;-85
2022/11/12 11:43:29;;;;;;;4.20;2.90;;;13.70;97.30;;;;;;5051192;28;20517;-86
2022/11/12 11:46:13;;;;;;;13.23;3.93;;;13.70;97.30;;;;;;5042972;28;20966;-85
2022/11/12 11:49:12;;;;;;;4.57;3.50;;;13.70;97.30;;;;;;5050749;28;20835;-86
2022/11/12 11:51:54;;;;;;;6.43;3.00;;;13.70;97.30;;;;;;5050211;28;20844;-86
2022/11/12 11:54:28;;;;;;;4.27;3.50;;;13.70;97.30;;;;;;5050359;28;20664;-86
2022/11/12 11:56:58;;;;;;;3.67;2.67;;;13.80;97.30;;;;;;5053138;28;20405;-86
2022/11/12 11:59:49;;;;;;;3.83;2.37;;;13.90;97.30;;;;;;5051646;28;20418;-85
2022/11/12 12:02:39;;;;;;;4.57;2.77;;;14.10;97.30;;;;;;5043277;28;20525;-86
2022/11/12 12:05:42;;;;;;;4.27;3.80;;;14.40;97.30;;;;;;5049415;28;20488;-86
2022/11/12 12:08:35;;;;;;;11.40;4.63;;;14.60;97.30;;;;;;5049449;28;20421;-86
2022/11/12 12:11:23;;;;;;;10.87;4.50;;;14.90;97.30;;;;;;5048446;28;20413;-85
2022/11/12 12:14:17;;;;;;;10.60;4.33;;;15.10;96.90;;;;;;5061868;28;20496;-86
2022/11/12 12:16:51;;;;;;;2.53;2.33;;;15.30;96.10;;;;;;5062199;28;20409;-85
2022/11/12 12:19:40;;;;;;;3.53;2.40;;;15.50;95.40;;;;;;5059108;28;20869;-85
2022/11/12 12:22:15;;;;;;;2.17;1.77;;;15.80;94.80;;;;;;5038173;28;20449;-85
2022/11/12 12:24:50;;;;;;;3.50;3.30;;;16.10;93.80;;;;;;5051377;28;20425;-85
2022/11/12 12:27:20;;;;;;;10.57;2.43;;;16.30;93.00;;;;;;5053527;28;20421;-86
2022/11/12 12:29:51;;;;;;;5.80;2.93;;;16.50;91.40;;;;;;5053224;28;20418;-85
2022/11/12 12:32:28;;;;;;;7.60;3.30;;;16.60;91.10;;;;;;5041571;28;20462;-85
2022/11/12 12:35:14;;;;;;;4.90;3.10;;;16.90;91.40;;;;;;5053757;28;20433;-85
2022/11/12 12:38:19;;;;;;;7.30;3.07;;;17.10;90.70;;;;;;5053183;28;20687;-84
2022/11/12 12:41:00;;;;;;;4.57;2.03;;;17.20;90.70;;;;;;5053375;28;20509;-86
2022/11/12 12:43:54;;;;;;;2.93;2.30;;;17.30;90.20;;;;;;5053638;28;20604;-86
2022/11/12 12:46:24;;;;;;;4.23;2.80;;;17.40;90.00;;;;;;5053334;28;20493;-86
2022/11/12 12:48:52;;;;;;;6.63;2.60;;;17.50;89.50;;;;;;5053212;28;20426;-86
2022/11/12 12:51:19;;;;;;;9.23;3.57;;;17.60;89.30;;;;;;5052718;28;20452;-86
2022/11/12 12:53:45;;;;;;;2.60;2.40;;;17.70;88.80;;;;;;5052683;28;20458;-85
2022/11/12 12:56:13;;;;;;;5.23;2.90;;;17.70;87.70;;;;;;5053032;28;20457;-86
2022/11/12 12:58:47;;;;;;;2.57;1.70;;;17.90;87.70;;;;;;5052914;28;20183;-86
2022/11/12 13:01:21;;;;;;;3.70;2.43;;;18.00;86.60;;;;;;5052666;28;21000;-86
2022/11/12 13:04:02;;;;;;;4.40;2.87;;;18.20;86.70;;;;;;5058949;28;20976;-86
2022/11/12 13:06:44;;;;;;;4.60;3.17;;;18.40;86.40;;;;;;5058883;28;20918;-86
2022/11/12 13:09:16;;;;;;;1.73;1.63;;;18.50;86.20;;;;;;5072259;28;20432;-86
2022/11/12 13:14:37;;;;;;;5.90;2.57;;;18.60;86.50;;;;;;5060078;28;20460;-86
2022/11/12 13:17:05;;;;;;;2.37;2.00;;;18.60;85.90;;;;;;5058012;28;20430;-86
2022/11/12 13:19:57;;;;;;;1.90;1.80;;;18.50;85.90;;;;;;5053333;28;20421;-85
2022/11/12 13:22:23;;;;;;;3.17;2.70;;;18.50;85.80;;;;;;5046337;28;20481;-86
2022/11/12 13:25:06;;;;;;;8.53;2.60;;;18.40;85.80;;;;;;5054659;28;20415;-86
2022/11/12 13:27:38;;;;;;;57.43;4.93;;;18.50;86.30;;;;;;5052751;28;20179;-86
2022/11/12 13:30:07;;;;;;;4.83;2.43;;;18.50;86.30;;;;;;5051846;28;20422;-86
2022/11/12 13:32:40;;;;;;;8.97;3.97;;;18.30;86.50;;;;;;5067284;28;20516;-86